createdAt,value
2023-05-01T00:01:19.012Z,2.4
2023-05-01T00:07:04.749Z,2.5
2023-05-01T00:12:49.359Z,3.2
2023-05-01T00:18:34.242Z,2.3
2023-05-01T00:24:21.072Z,2.3
2023-05-01T00:30:05.707Z,2.6
2023-05-01T00:35:51.509Z,2.8
2023-05-01T00:41:36.081Z,2.3
2023-05-01T00:47:21.472Z,2.6
2023-05-01T00:53:06.554Z,2.3
2023-05-01T00:58:53.727Z,2.3
2023-05-01T01:04:38.824Z,2.5
2023-05-01T01:10:28.464Z,2.9
2023-05-01T01:16:19.474Z,2.4
2023-05-01T01:22:10.354Z,2.7
2023-05-01T01:28:04.404Z,2.9
2023-05-01T01:33:58.504Z,3.7
2023-05-01T01:39:49.226Z,3.2
2023-05-01T01:45:37.897Z,2.9
2023-05-01T01:51:24.359Z,2.6
2023-05-01T01:57:10.690Z,2.8
2023-05-01T02:02:56.314Z,3.7
2023-05-01T02:08:41.601Z,2.9
2023-05-01T02:14:27.451Z,3
2023-05-01T02:20:13.775Z,4
2023-05-01T02:25:59.785Z,3.2
2023-05-01T02:31:44.848Z,3.4
2023-05-01T02:37:29.760Z,3.6
2023-05-01T02:43:15.661Z,3.5
2023-05-01T02:49:00.724Z,5.4
2023-05-01T02:54:45.745Z,3.7
2023-05-01T03:00:30.534Z,4.1
2023-05-01T03:06:16.207Z,3.4
2023-05-01T03:12:00.934Z,4.4
2023-05-01T03:17:46.107Z,3.3
2023-05-01T03:23:30.897Z,4.8
2023-05-01T03:29:15.741Z,3.3
2023-05-01T03:35:00.460Z,3.9
2023-05-01T03:40:44.990Z,3.9
2023-05-01T03:46:30.019Z,3.8
2023-05-01T03:52:15.069Z,4.5
2023-05-01T03:58:00.594Z,3.8
2023-05-01T04:03:45.785Z,5.4
2023-05-01T04:09:30.521Z,4.2
2023-05-01T04:15:18.601Z,4
2023-05-01T04:21:03.280Z,4.2
2023-05-01T04:26:47.940Z,4
2023-05-01T04:32:33.643Z,5
2023-05-01T04:38:18.169Z,5.2
2023-05-01T04:44:02.887Z,5.4
2023-05-01T04:49:47.622Z,6.5
2023-05-01T04:55:34.460Z,5.7
2023-05-01T05:01:19.223Z,5
2023-05-01T05:07:04.015Z,4.8
2023-05-01T05:12:48.763Z,5.4
2023-05-01T05:18:33.582Z,4.9
2023-05-01T05:24:18.383Z,4.7
2023-05-01T05:30:03.145Z,4.3
2023-05-01T05:35:47.898Z,4.5
2023-05-01T05:41:32.566Z,4.4
2023-05-01T05:47:17.459Z,4.3
2023-05-01T05:53:02.196Z,4.3
2023-05-01T05:58:47.780Z,4.9
2023-05-01T06:04:32.569Z,4.9
2023-05-01T06:10:18.096Z,4.6
2023-05-01T06:16:04.120Z,6.2
2023-05-01T06:21:48.920Z,6.2
2023-05-01T06:27:33.568Z,6.1
2023-05-01T06:33:18.338Z,6.1
2023-05-01T06:39:03.116Z,5.6
2023-05-01T06:44:48.692Z,5
2023-05-01T06:50:33.334Z,7.1
2023-05-01T06:56:18.006Z,7.9
2023-05-01T07:02:04.733Z,7.6
2023-05-01T07:08:02.971Z,7.5
2023-05-01T07:13:47.674Z,8.9
2023-05-01T07:19:32.164Z,9.4
2023-05-01T07:25:16.930Z,9.6
2023-05-01T07:31:01.741Z,8.5
2023-05-01T07:36:46.803Z,10.2
2023-05-01T07:42:31.453Z,9.5
2023-05-01T07:48:16.805Z,8.9
2023-05-01T07:54:01.589Z,11.4
2023-05-01T07:59:47.189Z,9.5
2023-05-01T08:05:31.822Z,9.4
2023-05-01T08:11:16.634Z,9
2023-05-01T08:17:01.534Z,8.3
2023-05-01T08:22:46.221Z,8.2
2023-05-01T08:28:31.197Z,7.4
2023-05-01T08:34:16.012Z,7.5
2023-05-01T08:40:01.011Z,8.4
2023-05-01T08:45:46.143Z,8.3
2023-05-01T08:51:33.389Z,7.7
2023-05-01T08:57:18.812Z,7.2
2023-05-01T09:03:05.464Z,8.5
2023-05-01T09:08:50.246Z,8.2
2023-05-01T09:14:35.257Z,8
2023-05-01T09:20:21.023Z,9.5
2023-05-01T09:26:08.184Z,11
2023-05-01T09:31:53.335Z,13
2023-05-01T09:37:38.359Z,10.8
2023-05-01T09:43:31.289Z,9
2023-05-01T09:49:16.152Z,10.3
2023-05-01T09:55:12.832Z,8.8
2023-05-01T10:00:57.613Z,10.7
2023-05-01T10:06:43.435Z,12.4
2023-05-01T10:12:31.656Z,16
2023-05-01T10:18:17.830Z,15
2023-05-01T10:24:03.697Z,17.1
2023-05-01T10:29:50.003Z,17.9
2023-05-01T10:35:37.538Z,18.1
2023-05-01T10:41:26.975Z,15.1
2023-05-01T10:47:22.703Z,14.2
2023-05-01T10:53:27.972Z,14.4
2023-05-01T10:59:12.706Z,12.8
2023-05-01T11:04:58.706Z,9.7
2023-05-01T11:10:43.326Z,10.9
2023-05-01T11:16:39.810Z,11.3
2023-05-01T11:22:24.865Z,13.1
2023-05-01T11:28:10.203Z,9.6
2023-05-01T11:33:54.956Z,13.1
2023-05-01T11:39:39.653Z,10.2
2023-05-01T11:45:24.393Z,8.1
2023-05-01T11:51:13.961Z,11.8
2023-05-01T11:57:04.600Z,7.5
2023-05-01T12:02:54.799Z,11.4
2023-05-01T12:08:40.177Z,12.1
2023-05-01T12:14:25.137Z,13.5
2023-05-01T12:20:10.977Z,11.2
2023-05-01T12:25:55.723Z,10.9
2023-05-01T12:31:40.962Z,10.7
2023-05-01T12:37:25.654Z,13
2023-05-01T12:43:10.355Z,11.9
2023-05-01T12:48:57.686Z,10.4
2023-05-01T12:54:42.978Z,8.4
2023-05-01T13:00:27.943Z,10.2
2023-05-01T13:06:12.790Z,9.2
2023-05-01T13:12:04.051Z,9.4
2023-05-01T13:17:49.086Z,7.4
2023-05-01T13:23:33.817Z,7.1
2023-05-01T13:29:20.488Z,4.4
2023-05-01T13:35:05.227Z,5.4
2023-05-01T13:40:49.903Z,5.5
2023-05-01T13:46:35.370Z,5.3
2023-05-01T13:52:22.271Z,4
2023-05-01T13:58:07.872Z,5.4
2023-05-01T14:03:53.547Z,5
2023-05-01T14:09:38.780Z,4.9
2023-05-01T14:15:23.457Z,3.3
2023-05-01T14:21:08.332Z,5.6
2023-05-01T14:26:53.040Z,5.5
2023-05-01T14:32:40.011Z,7.7
2023-05-01T14:38:25.692Z,5.2
2023-05-01T14:44:13.951Z,6.5
2023-05-01T14:49:58.816Z,4.6
2023-05-01T14:55:44.586Z,4.6
2023-05-01T15:01:29.545Z,3.3
2023-05-01T15:07:14.310Z,3.9
2023-05-01T15:12:59.141Z,6.3
2023-05-01T15:18:43.858Z,5.8
2023-05-01T15:24:28.424Z,4.9
2023-05-01T15:30:13.821Z,4.2
2023-05-01T15:35:58.475Z,3.4
2023-05-01T15:41:43.157Z,4
2023-05-01T15:47:28.385Z,3.5
2023-05-01T15:53:13.209Z,4.3
2023-05-01T15:58:58.210Z,5.1
2023-05-01T16:04:44.360Z,3.7
2023-05-01T16:10:28.943Z,3.3
2023-05-01T16:16:16.098Z,4.4
2023-05-01T16:22:01.154Z,3.1
2023-05-01T16:27:47.008Z,3.1
2023-05-01T16:33:31.822Z,5.4
2023-05-01T16:39:17.557Z,3.9
2023-05-01T16:45:04.498Z,4.7
2023-05-01T16:50:50.184Z,5.3
2023-05-01T16:56:35.186Z,4.5
2023-05-01T17:02:20.075Z,5.2
2023-05-01T17:08:04.953Z,4.4
2023-05-01T17:13:49.721Z,3.5
2023-05-01T17:19:35.619Z,4.2
2023-05-01T17:25:20.407Z,3.8
2023-05-01T17:31:05.094Z,4.7
2023-05-01T17:36:49.941Z,3.8
2023-05-01T17:42:34.654Z,4.1
2023-05-01T17:48:19.704Z,5.8
2023-05-01T17:54:04.504Z,6
2023-05-01T17:59:48.961Z,6.3
2023-05-01T18:05:34.746Z,5.4
2023-05-01T18:11:19.833Z,4.5
2023-05-01T18:17:05.050Z,4.9
2023-05-01T18:22:50.671Z,6
2023-05-01T18:28:36.252Z,6.5
2023-05-01T18:34:20.891Z,6.9
2023-05-01T18:40:05.875Z,6.2
2023-05-01T18:45:51.532Z,4.7
2023-05-01T18:51:37.283Z,6
2023-05-01T18:57:22.833Z,7.9
2023-05-01T19:03:08.832Z,5.8
2023-05-01T19:08:55.611Z,5.1
2023-05-01T19:14:40.341Z,6.8
2023-05-01T19:20:25.127Z,4.9
2023-05-01T19:26:09.868Z,4.5
2023-05-01T19:31:54.771Z,4.6
2023-05-01T19:37:40.472Z,5.5
2023-05-01T19:43:25.144Z,5
2023-05-01T19:49:09.805Z,5.1
2023-05-01T19:54:54.463Z,4
2023-05-01T20:00:39.150Z,4.6
2023-05-01T20:06:24.372Z,4.9
2023-05-01T20:12:08.963Z,3.7
2023-05-01T20:17:53.903Z,6.1
2023-05-01T20:23:38.751Z,5.5
2023-05-01T20:29:23.569Z,5.1
2023-05-01T20:35:08.532Z,4.1
2023-05-01T20:40:53.112Z,4.2
2023-05-01T20:46:38.122Z,4.5
2023-05-01T20:52:22.722Z,4.2
2023-05-01T20:58:07.425Z,4.7
2023-05-01T21:03:52.681Z,4.8
2023-05-01T21:09:39.958Z,5.7
2023-05-01T21:15:24.815Z,4.3
2023-05-01T21:21:09.476Z,4.7
2023-05-01T21:26:54.186Z,5.8
2023-05-01T21:32:42.611Z,4.2
2023-05-01T21:38:27.183Z,4.3
2023-05-01T21:44:13.469Z,4.2
2023-05-01T21:50:00.070Z,3.8
2023-05-01T21:55:47.937Z,5.3
2023-05-01T22:01:33.070Z,4.9
2023-05-01T22:07:18.118Z,5
2023-05-01T22:13:02.773Z,6
2023-05-01T22:18:49.917Z,8.1
2023-05-01T22:24:34.640Z,5.6
2023-05-01T22:30:19.475Z,6.5
2023-05-01T22:36:07.427Z,6
2023-05-01T22:41:52.213Z,6.2
2023-05-01T22:47:37.054Z,7
2023-05-01T22:53:22.008Z,6.6
2023-05-01T22:59:07.534Z,6.5
2023-05-01T23:04:52.440Z,7.4
2023-05-01T23:10:37.380Z,7.1
2023-05-01T23:16:22.409Z,8.7
2023-05-01T23:22:12.936Z,9.4
2023-05-01T23:27:58.782Z,8
2023-05-01T23:33:43.424Z,8.9
2023-05-01T23:39:28.147Z,6.9
2023-05-01T23:45:13.420Z,8.2
2023-05-01T23:50:58.264Z,8.6
2023-05-01T23:56:42.952Z,9.8
